sensor_id;sensor_type;location;lat;lon;timestamp;P1;durP1;ratioP1;P2;durP2;ratioP2
13687;SDS011;6916;51.504;7.416;2023-04-24T00:01:19;0.55;;;0.10;;
13687;SDS011;6916;51.504;7.416;2023-04-24T00:11:21;0.10;;;0.10;;
13687;SDS011;6916;51.504;7.416;2023-04-24T00:21:23;1.20;;;0.10;;
13687;SDS011;6916;51.504;7.416;2023-04-24T00:31:27;0.50;;;0.27;;
13687;SDS011;6916;51.504;7.416;2023-04-24T00:41:29;0.80;;;0.30;;
13687;SDS011;6916;51.504;7.416;2023-04-24T00:51:33;0.40;;;0.30;;
13687;SDS011;6916;51.504;7.416;2023-04-24T01:01:36;0.43;;;0.33;;
13687;SDS011;6916;51.504;7.416;2023-04-24T01:11:39;0.50;;;0.50;;
13687;SDS011;6916;51.504;7.416;2023-04-24T01:21:42;1.27;;;0.37;;
13687;SDS011;6916;51.504;7.416;2023-04-24T01:31:45;0.67;;;0.40;;
13687;SDS011;6916;51.504;7.416;2023-04-24T01:41:47;1.53;;;0.57;;
13687;SDS011;6916;51.504;7.416;2023-04-24T01:51:53;1.03;;;0.60;;
13687;SDS011;6916;51.504;7.416;2023-04-24T02:01:55;0.90;;;0.60;;
13687;SDS011;6916;51.504;7.416;2023-04-24T02:11:57;0.93;;;0.63;;
13687;SDS011;6916;51.504;7.416;2023-04-24T02:21:59;0.83;;;0.80;;
13687;SDS011;6916;51.504;7.416;2023-04-24T02:32:02;2.17;;;1.00;;
13687;SDS011;6916;51.504;7.416;2023-04-24T02:42:04;2.83;;;1.97;;
13687;SDS011;6916;51.504;7.416;2023-04-24T02:52:07;8.53;;;2.03;;
13687;SDS011;6916;51.504;7.416;2023-04-24T03:02:09;4.55;;;3.47;;
13687;SDS011;6916;51.504;7.416;2023-04-24T03:12:11;7.50;;;4.80;;
13687;SDS011;6916;51.504;7.416;2023-04-24T03:22:13;7.07;;;4.33;;
13687;SDS011;6916;51.504;7.416;2023-04-24T03:32:16;7.17;;;5.30;;
13687;SDS011;6916;51.504;7.416;2023-04-24T03:42:21;6.37;;;5.17;;
13687;SDS011;6916;51.504;7.416;2023-04-24T03:52:27;9.40;;;5.53;;
13687;SDS011;6916;51.504;7.416;2023-04-24T04:02:29;9.97;;;6.67;;
13687;SDS011;6916;51.504;7.416;2023-04-24T04:12:32;9.73;;;6.10;;
13687;SDS011;6916;51.504;7.416;2023-04-24T04:22:35;7.77;;;6.73;;
13687;SDS011;6916;51.504;7.416;2023-04-24T04:32:40;9.17;;;6.87;;
13687;SDS011;6916;51.504;7.416;2023-04-24T04:42:43;10.00;;;6.43;;
13687;SDS011;6916;51.504;7.416;2023-04-24T04:52:48;8.75;;;7.68;;
13687;SDS011;6916;51.504;7.416;2023-04-24T05:02:58;10.80;;;8.40;;
13687;SDS011;6916;51.504;7.416;2023-04-24T05:13:15;13.00;;;8.40;;
13687;SDS011;6916;51.504;7.416;2023-04-24T05:23:22;9.97;;;8.03;;
13687;SDS011;6916;51.504;7.416;2023-04-24T05:33:27;8.40;;;6.43;;
13687;SDS011;6916;51.504;7.416;2023-04-24T05:43:29;8.67;;;5.83;;
13687;SDS011;6916;51.504;7.416;2023-04-24T05:53:31;7.77;;;4.93;;
13687;SDS011;6916;51.504;7.416;2023-04-24T06:03:33;7.20;;;5.00;;
13687;SDS011;6916;51.504;7.416;2023-04-24T06:13:38;7.43;;;6.30;;
13687;SDS011;6916;51.504;7.416;2023-04-24T06:24:03;7.97;;;6.50;;
13687;SDS011;6916;51.504;7.416;2023-04-24T06:34:06;6.20;;;4.90;;
13687;SDS011;6916;51.504;7.416;2023-04-24T06:44:08;4.30;;;3.90;;
13687;SDS011;6916;51.504;7.416;2023-04-24T06:54:10;6.07;;;4.33;;
13687;SDS011;6916;51.504;7.416;2023-04-24T07:04:12;6.13;;;4.17;;
13687;SDS011;6916;51.504;7.416;2023-04-24T07:14:15;3.97;;;3.57;;
13687;SDS011;6916;51.504;7.416;2023-04-24T07:24:17;4.33;;;3.93;;
13687;SDS011;6916;51.504;7.416;2023-04-24T07:34:23;4.10;;;3.80;;
13687;SDS011;6916;51.504;7.416;2023-04-24T07:44:25;4.33;;;2.47;;
13687;SDS011;6916;51.504;7.416;2023-04-24T07:54:28;2.80;;;2.60;;
13687;SDS011;6916;51.504;7.416;2023-04-24T08:04:30;2.07;;;1.80;;
13687;SDS011;6916;51.504;7.416;2023-04-24T08:14:32;1.63;;;0.93;;
13687;SDS011;6916;51.504;7.416;2023-04-24T08:24:34;0.83;;;0.37;;
13687;SDS011;6916;51.504;7.416;2023-04-24T08:34:37;0.20;;;0.20;;
13687;SDS011;6916;51.504;7.416;2023-04-24T08:44:39;0.20;;;0.20;;
13687;SDS011;6916;51.504;7.416;2023-04-24T08:54:41;0.53;;;0.10;;
13687;SDS011;6916;51.504;7.416;2023-04-24T09:04:47;0.30;;;0.30;;
13687;SDS011;6916;51.504;7.416;2023-04-24T09:14:49;1.23;;;0.20;;
13687;SDS011;6916;51.504;7.416;2023-04-24T09:25:13;1.00;;;0.80;;
13687;SDS011;6916;51.504;7.416;2023-04-24T09:35:15;2.17;;;0.80;;
13687;SDS011;6916;51.504;7.416;2023-04-24T09:45:17;0.70;;;0.70;;
13687;SDS011;6916;51.504;7.416;2023-04-24T09:55:20;6.13;;;4.07;;
13687;SDS011;6916;51.504;7.416;2023-04-24T10:05:23;0.70;;;0.63;;
13687;SDS011;6916;51.504;7.416;2023-04-24T10:15:26;1.30;;;0.90;;
13687;SDS011;6916;51.504;7.416;2023-04-24T10:25:30;3.53;;;1.50;;
13687;SDS011;6916;51.504;7.416;2023-04-24T10:35:37;1.50;;;1.40;;
13687;SDS011;6916;51.504;7.416;2023-04-24T10:45:59;3.20;;;1.30;;
13687;SDS011;6916;51.504;7.416;2023-04-24T10:56:03;2.60;;;2.17;;
13687;SDS011;6916;51.504;7.416;2023-04-24T11:06:08;2.67;;;2.47;;
13687;SDS011;6916;51.504;7.416;2023-04-24T11:26:25;6.27;;;4.17;;
13687;SDS011;6916;51.504;7.416;2023-04-24T11:36:34;10.17;;;4.40;;
13687;SDS011;6916;51.504;7.416;2023-04-24T11:46:37;10.60;;;5.30;;
13687;SDS011;6916;51.504;7.416;2023-04-24T11:56:47;12.07;;;5.60;;
13687;SDS011;6916;51.504;7.416;2023-04-24T12:07:00;14.83;;;7.07;;
13687;SDS011;6916;51.504;7.416;2023-04-24T12:17:05;9.90;;;4.83;;
13687;SDS011;6916;51.504;7.416;2023-04-24T12:27:07;8.17;;;4.37;;
13687;SDS011;6916;51.504;7.416;2023-04-24T12:37:24;4.40;;;3.80;;
13687;SDS011;6916;51.504;7.416;2023-04-24T12:47:28;7.40;;;3.40;;
13687;SDS011;6916;51.504;7.416;2023-04-24T12:57:30;9.53;;;3.40;;
13687;SDS011;6916;51.504;7.416;2023-04-24T13:07:32;4.93;;;3.30;;
13687;SDS011;6916;51.504;7.416;2023-04-24T13:17:35;7.10;;;2.63;;
13687;SDS011;6916;51.504;7.416;2023-04-24T13:27:40;4.63;;;2.47;;
13687;SDS011;6916;51.504;7.416;2023-04-24T13:37:42;3.67;;;2.10;;
13687;SDS011;6916;51.504;7.416;2023-04-24T13:47:45;3.25;;;2.03;;
13687;SDS011;6916;51.504;7.416;2023-04-24T13:57:48;4.80;;;1.67;;
13687;SDS011;6916;51.504;7.416;2023-04-24T14:07:50;1.40;;;1.00;;
13687;SDS011;6916;51.504;7.416;2023-04-24T14:17:53;3.80;;;1.00;;
13687;SDS011;6916;51.504;7.416;2023-04-24T14:27:55;3.00;;;1.20;;
13687;SDS011;6916;51.504;7.416;2023-04-24T14:37:57;1.97;;;0.93;;
13687;SDS011;6916;51.504;7.416;2023-04-24T14:47:59;2.53;;;0.60;;
13687;SDS011;6916;51.504;7.416;2023-04-24T14:58:02;2.23;;;1.00;;
13687;SDS011;6916;51.504;7.416;2023-04-24T15:08:04;2.42;;;1.58;;
13687;SDS011;6916;51.504;7.416;2023-04-24T15:18:07;3.97;;;1.73;;
13687;SDS011;6916;51.504;7.416;2023-04-24T15:28:10;4.60;;;2.43;;
13687;SDS011;6916;51.504;7.416;2023-04-24T15:38:12;1.90;;;1.70;;
13687;SDS011;6916;51.504;7.416;2023-04-24T15:48:15;1.73;;;1.10;;
13687;SDS011;6916;51.504;7.416;2023-04-24T15:58:19;4.47;;;1.40;;
13687;SDS011;6916;51.504;7.416;2023-04-24T16:08:22;2.50;;;0.83;;
13687;SDS011;6916;51.504;7.416;2023-04-24T16:18:24;2.60;;;0.80;;
13687;SDS011;6916;51.504;7.416;2023-04-24T16:28:26;3.50;;;1.10;;
13687;SDS011;6916;51.504;7.416;2023-04-24T16:38:28;0.80;;;0.67;;
13687;SDS011;6916;51.504;7.416;2023-04-24T16:48:31;6.63;;;3.73;;
13687;SDS011;6916;51.504;7.416;2023-04-24T16:58:34;2.33;;;0.97;;
13687;SDS011;6916;51.504;7.416;2023-04-24T17:08:36;0.93;;;0.82;;
13687;SDS011;6916;51.504;7.416;2023-04-24T17:18:38;3.73;;;1.10;;
13687;SDS011;6916;51.504;7.416;2023-04-24T17:28:41;4.23;;;1.73;;
13687;SDS011;6916;51.504;7.416;2023-04-24T17:38:43;2.93;;;1.00;;
13687;SDS011;6916;51.504;7.416;2023-04-24T17:48:45;1.70;;;1.17;;
13687;SDS011;6916;51.504;7.416;2023-04-24T17:58:50;2.93;;;1.10;;
13687;SDS011;6916;51.504;7.416;2023-04-24T18:08:53;3.05;;;1.17;;
13687;SDS011;6916;51.504;7.416;2023-04-24T18:18:56;3.90;;;1.20;;
13687;SDS011;6916;51.504;7.416;2023-04-24T18:28:58;5.25;;;1.25;;
13687;SDS011;6916;51.504;7.416;2023-04-24T18:39:00;2.97;;;1.83;;
13687;SDS011;6916;51.504;7.416;2023-04-24T18:49:03;3.57;;;1.63;;
13687;SDS011;6916;51.504;7.416;2023-04-24T18:59:05;4.17;;;2.13;;
13687;SDS011;6916;51.504;7.416;2023-04-24T19:09:08;5.90;;;2.57;;
13687;SDS011;6916;51.504;7.416;2023-04-24T19:19:10;5.60;;;2.23;;
13687;SDS011;6916;51.504;7.416;2023-04-24T19:29:12;4.67;;;2.30;;
13687;SDS011;6916;51.504;7.416;2023-04-24T19:39:14;11.05;;;3.50;;
13687;SDS011;6916;51.504;7.416;2023-04-24T19:49:17;8.37;;;2.50;;
13687;SDS011;6916;51.504;7.416;2023-04-24T19:59:19;2.77;;;2.00;;
13687;SDS011;6916;51.504;7.416;2023-04-24T20:09:21;5.37;;;2.67;;
13687;SDS011;6916;51.504;7.416;2023-04-24T20:19:23;6.83;;;3.03;;
13687;SDS011;6916;51.504;7.416;2023-04-24T20:29:26;4.53;;;2.93;;
13687;SDS011;6916;51.504;7.416;2023-04-24T20:39:28;5.23;;;2.63;;
13687;SDS011;6916;51.504;7.416;2023-04-24T20:49:30;5.70;;;2.77;;
13687;SDS011;6916;51.504;7.416;2023-04-24T20:59:32;4.57;;;2.33;;
13687;SDS011;6916;51.504;7.416;2023-04-24T21:09:35;4.63;;;2.23;;
13687;SDS011;6916;51.504;7.416;2023-04-24T21:19:37;7.00;;;2.97;;
13687;SDS011;6916;51.504;7.416;2023-04-24T21:29:39;4.33;;;2.83;;
13687;SDS011;6916;51.504;7.416;2023-04-24T21:39:42;5.40;;;2.90;;
13687;SDS011;6916;51.504;7.416;2023-04-24T21:49:44;6.67;;;3.20;;
13687;SDS011;6916;51.504;7.416;2023-04-24T21:59:46;5.60;;;3.10;;
13687;SDS011;6916;51.504;7.416;2023-04-24T22:09:48;8.47;;;2.87;;
13687;SDS011;6916;51.504;7.416;2023-04-24T22:19:50;10.37;;;3.50;;
13687;SDS011;6916;51.504;7.416;2023-04-24T22:29:52;9.40;;;3.17;;
13687;SDS011;6916;51.504;7.416;2023-04-24T22:39:55;9.73;;;3.17;;
13687;SDS011;6916;51.504;7.416;2023-04-24T22:49:57;8.43;;;3.40;;
13687;SDS011;6916;51.504;7.416;2023-04-24T23:00:00;11.63;;;3.73;;
13687;SDS011;6916;51.504;7.416;2023-04-24T23:10:03;8.00;;;4.40;;
13687;SDS011;6916;51.504;7.416;2023-04-24T23:20:08;9.73;;;4.00;;
13687;SDS011;6916;51.504;7.416;2023-04-24T23:30:13;8.63;;;3.87;;
13687;SDS011;6916;51.504;7.416;2023-04-24T23:40:15;9.47;;;4.10;;
13687;SDS011;6916;51.504;7.416;2023-04-24T23:50:17;10.97;;;4.00;;
